Pagrindinis puslapis
METAR-TAF:

METAR-TAF

Oro uostai :

Frederick, Oklahoma, Jungtinės Amerikos Valstijos

platuma: 34-20-40N, ilguma: 098-58-59W, Aukštis: 382 m

Dabartinis oras

Ataskaita buvo paskelbta 1 valandą ir 5 minutes, ne 01:53 UTC
Vėjas 10 kt iš Pietų
Temperatūra 22°C
Drėgmė 53%
Slėgis 1008 hPa
Matomumas: 16.1 km
Giedras dangus

METAR: KFDR 080153Z AUTO 17010KT 10SM CLR 22/12 A2976 RMK AO2 SLP063 T02220122

Laikas: 21:58 (02:58 UTC)


TAF: trūkstamas

Orai ataskaitas ir orų prognozės (METAR, TAF).

turimą stotys yra geltonos ir raudonos taškus žemėlapyje.

Perkelti pele per norėdami pamatyti stoties vardą.

Tada spustelėkite, norėdami matyti oro stebėjimo ir prognozės.

Norėdami pakeisti žemėlapį: spustelėkite ant žalios mygtukų su juodo kryžiaus žemyn,; žalią mygtuką su brūkšneliu, jei norite nutolinti; arba žalių rodyklių gretimoms žemėlapius.


METAR-TAF: